createdAt,value
2019-05-03T00:02:41.693Z,99923.91
2019-05-03T00:07:43.367Z,99927.48
2019-05-03T00:12:45.811Z,99932.64
2019-05-03T00:17:48.271Z,99917.36
2019-05-03T00:22:52.341Z,99926.27
2019-05-03T00:27:53.168Z,99923.23
2019-05-03T00:32:55.629Z,99928.73
2019-05-03T00:37:58.080Z,99925.74
2019-05-03T00:43:02.290Z,99933.66
2019-05-03T00:48:02.991Z,99932.05
2019-05-03T00:53:05.450Z,99934.46
2019-05-03T00:58:07.940Z,99930.55
2019-05-03T01:03:12.411Z,99934.92
2019-05-03T01:08:12.857Z,99936.54
2019-05-03T01:13:15.315Z,99936.54
2019-05-03T01:18:21.829Z,99936.02
2019-05-03T01:23:23.137Z,99937.63
2019-05-03T01:28:25.602Z,99928.34
2019-05-03T01:33:28.063Z,99927.03
2019-05-03T01:38:31.856Z,99921.56
2019-05-03T01:43:32.983Z,99931.81
2019-05-03T01:48:41.725Z,99934.56
2019-05-03T01:53:44.079Z,99928.36
2019-05-03T01:58:46.533Z,99928.00
2019-05-03T02:03:54.926Z,99937.11
2019-05-03T02:08:57.388Z,99938.71
2019-05-03T02:14:01.597Z,99949.72
2019-05-03T02:19:02.532Z,99939.86
2019-05-03T02:24:04.759Z,99948.16
2019-05-03T02:29:07.218Z,99947.49
2019-05-03T02:34:09.674Z,99951.45
2019-05-03T02:39:13.546Z,99957.03
2019-05-03T02:44:15.586Z,99957.08
2019-05-03T02:49:17.058Z,99958.62
2019-05-03T02:54:19.498Z,99963.30
2019-05-03T02:59:21.950Z,99971.55
2019-05-03T03:04:26.009Z,99966.52
2019-05-03T03:09:26.871Z,99972.05
2019-05-03T03:14:29.324Z,99971.08
2019-05-03T03:19:31.782Z,99971.32
2019-05-03T03:24:36.142Z,99977.83
2019-05-03T03:29:36.722Z,99978.44
2019-05-03T03:34:39.428Z,99980.23
2019-05-03T03:39:41.630Z,99981.27
2019-05-03T03:44:45.372Z,99977.95
2019-05-03T03:49:46.597Z,99986.78
2019-05-03T03:54:48.987Z,99993.85
2019-05-03T03:59:51.460Z,99997.18
2019-05-03T04:04:56.160Z,100002.47
2019-05-03T04:09:56.593Z,100007.41
2019-05-03T04:15:05.795Z,100016.00
2019-05-03T04:20:07.796Z,100021.31
2019-05-03T04:25:10.257Z,100023.45
2019-05-03T04:30:12.724Z,100017.78
2019-05-03T04:35:16.362Z,100023.45
2019-05-03T04:40:17.652Z,100034.09
2019-05-03T04:45:20.109Z,100041.73
2019-05-03T04:50:25.273Z,100043.70
2019-05-03T04:55:26.573Z,100045.64
2019-05-03T05:00:27.518Z,100056.63
2019-05-03T05:05:29.985Z,100059.38
2019-05-03T05:10:32.452Z,100063.51
2019-05-03T05:15:35.512Z,100073.90
2019-05-03T05:20:37.381Z,100068.56
2019-05-03T05:25:39.852Z,100085.07
2019-05-03T05:30:44.353Z,100085.65
2019-05-03T05:35:44.783Z,100092.27
2019-05-03T05:41:05.294Z,100102.61
2019-05-03T05:46:40.594Z,100109.04
2019-05-03T05:53:15.259Z,100113.70
2019-05-03T05:56:55.558Z,100125.66
2019-05-03T06:02:06.691Z,100141.09
2019-05-03T06:07:16.506Z,100144.72
2019-05-03T06:12:21.492Z,100146.45
2019-05-03T06:17:39.622Z,100147.64
2019-05-03T06:35:04.954Z,100162.79
2019-05-03T06:58:05.252Z,100158.25
2019-05-03T07:03:07.664Z,100169.25
2019-05-03T07:08:10.142Z,100172.92
2019-05-03T07:13:12.597Z,100174.97
2019-05-03T07:18:15.739Z,100182.83
2019-05-03T07:23:17.536Z,100182.83
2019-05-03T07:28:19.994Z,100183.64
2019-05-03T07:33:22.450Z,100186.89
2019-05-03T07:38:24.996Z,100188.35
2019-05-03T07:43:27.382Z,100187.73
2019-05-03T07:48:29.840Z,100193.23
2019-05-03T07:53:32.327Z,100198.11
2019-05-03T07:58:35.267Z,100193.08
2019-05-03T08:03:37.253Z,100195.43
2019-05-03T08:08:39.694Z,100195.30
2019-05-03T08:13:42.172Z,100197.16
2019-05-03T08:18:45.713Z,100204.51
2019-05-03T08:23:47.111Z,100203.40
2019-05-03T08:28:49.572Z,100206.09
2019-05-03T08:33:57.664Z,100214.26
2019-05-03T08:39:00.143Z,100209.83
2019-05-03T08:44:02.605Z,100208.36
2019-05-03T08:49:05.335Z,100203.25
2019-05-03T08:54:07.534Z,100205.70
2019-05-03T08:59:09.991Z,100210.47
2019-05-03T09:04:12.455Z,100205.78
2019-05-03T09:09:15.130Z,100203.16
2019-05-03T09:14:17.433Z,100201.09
2019-05-03T09:19:19.886Z,100213.81
2019-05-03T09:24:24.444Z,100199.70
2019-05-03T09:29:25.521Z,100193.78
2019-05-03T09:34:27.297Z,100179.73
2019-05-03T09:39:29.761Z,100176.47
2019-05-03T09:44:32.225Z,100177.00
2019-05-03T09:49:34.914Z,100183.59
2019-05-03T09:54:45.182Z,100175.72
2019-05-03T09:59:56.152Z,100169.88
2019-05-03T10:04:47.985Z,100173.38
2019-05-03T10:09:50.484Z,100165.47
2019-05-03T10:14:54.821Z,100167.98
2019-05-03T10:19:55.421Z,100167.05
2019-05-03T10:24:57.882Z,100157.03
2019-05-03T10:30:10.462Z,100158.91
2019-05-03T10:35:15.278Z,100157.93
2019-05-03T10:40:17.482Z,100154.53
2019-05-03T10:45:19.947Z,100151.45
2019-05-03T10:50:22.406Z,100140.25
2019-05-03T10:55:25.102Z,100139.20
2019-05-03T11:00:50.288Z,100141.95
2019-05-03T11:05:29.921Z,100134.55
2019-05-03T11:10:32.362Z,100136.13
2019-05-03T11:15:35.090Z,100128.68
2019-05-03T11:20:37.290Z,100126.53
2019-05-03T11:25:39.755Z,100125.58
2019-05-03T11:30:52.273Z,100116.55
2019-05-03T11:35:56.785Z,100115.76
2019-05-03T11:40:59.554Z,100112.88
2019-05-03T11:46:02.032Z,100108.53
2019-05-03T11:51:04.567Z,100103.28
2019-05-03T11:56:07.033Z,100104.43
2019-05-03T12:01:15.894Z,100101.12
2019-05-03T12:06:11.956Z,100105.25
2019-05-03T12:11:15.096Z,100099.02
2019-05-03T12:16:23.771Z,100103.41
2019-05-03T12:21:20.663Z,100102.63
2019-05-03T12:26:22.572Z,100095.20
2019-05-03T12:31:36.191Z,100099.52
2019-05-03T12:36:26.868Z,100093.15
2019-05-03T12:41:29.346Z,100089.37
2019-05-03T12:46:31.820Z,100083.70
2019-05-03T12:51:34.571Z,100088.91
2019-05-03T12:56:36.756Z,100086.31
2019-05-03T13:01:42.258Z,100091.34
2019-05-03T13:06:47.490Z,100082.73
2019-05-03T13:11:55.144Z,100080.57
2019-05-03T13:16:52.442Z,100078.34
2019-05-03T13:21:55.593Z,100074.42
2019-05-03T13:26:57.416Z,100078.73
2019-05-03T13:32:02.190Z,100082.09
2019-05-03T13:37:02.328Z,100096.93
2019-05-03T13:42:05.705Z,100107.53
2019-05-03T13:47:07.283Z,100099.45
2019-05-03T13:52:09.785Z,100078.17
2019-05-03T13:57:12.283Z,100072.44
2019-05-03T14:02:19.001Z,100067.55
2019-05-03T14:07:17.217Z,100064.95
2019-05-03T14:12:19.728Z,100063.59
2019-05-03T14:17:22.203Z,100074.98
2019-05-03T14:22:24.927Z,100071.17
2019-05-03T14:27:27.157Z,100059.98
2019-05-03T14:32:29.660Z,100051.00
2019-05-03T14:37:32.129Z,100043.56
2019-05-03T14:42:34.581Z,100055.42
2019-05-03T14:47:37.055Z,100053.81
2019-05-03T14:52:39.525Z,100049.55
2019-05-03T14:57:41.983Z,100050.75
2019-05-03T15:02:51.179Z,100045.48
2019-05-03T15:07:55.809Z,100041.00
2019-05-03T15:12:55.718Z,100034.22
2019-05-03T15:17:58.012Z,100027.30
2019-05-03T15:23:00.477Z,100023.28
2019-05-03T15:28:04.805Z,100024.44
2019-05-03T15:33:05.420Z,100023.56
2019-05-03T15:38:07.851Z,100023.83
2019-05-03T15:43:19.365Z,100019.46
2019-05-03T15:48:21.825Z,100025.45
2019-05-03T15:53:24.748Z,100028.36
2019-05-03T15:58:26.862Z,100030.31
2019-05-03T16:03:29.354Z,100021.62
2019-05-03T16:08:31.815Z,100020.55
2019-05-03T16:13:35.276Z,100008.86
2019-05-03T16:18:36.761Z,100009.06
2019-05-03T16:23:39.224Z,100006.04
2019-05-03T16:28:56.611Z,100003.63
2019-05-03T16:33:59.108Z,100002.12
2019-05-03T16:39:01.554Z,100005.91
2019-05-03T16:44:04.023Z,100004.59
2019-05-03T16:49:06.674Z,100002.69
2019-05-03T16:54:08.933Z,99999.88
2019-05-03T16:59:11.394Z,99998.06
2019-05-03T17:04:29.092Z,99997.97
2019-05-03T17:09:35.330Z,99987.32
2019-05-03T17:14:36.885Z,99991.20
2019-05-03T17:19:39.372Z,99992.17
2019-05-03T17:24:41.824Z,99999.25
2019-05-03T17:29:44.564Z,99992.49
2019-05-03T17:34:46.772Z,99992.63
2019-05-03T17:39:49.228Z,99988.47
2019-05-03T17:44:51.698Z,99985.63
2019-05-03T17:49:54.640Z,99987.66
2019-05-03T17:54:56.714Z,99988.05
2019-05-03T18:00:02.004Z,99993.64
2019-05-03T18:05:22.803Z,100000.97
2019-05-03T18:10:25.264Z,100008.76
2019-05-03T18:15:27.732Z,100003.77
2019-05-03T18:20:30.198Z,100006.22
2019-05-03T18:25:32.688Z,100015.72
2019-05-03T18:30:35.168Z,100014.80
2019-05-03T18:35:37.645Z,100017.80
2019-05-03T18:40:40.141Z,100020.91
2019-05-03T18:45:42.637Z,100022.12
2019-05-03T18:50:45.620Z,100023.87
2019-05-03T18:55:47.594Z,100022.90
2019-05-03T19:00:50.138Z,100019.73
2019-05-03T19:05:54.676Z,100024.22
2019-05-03T19:11:01.404Z,100030.30
2019-05-03T19:16:04.406Z,100032.05
2019-05-03T19:21:06.367Z,100031.05
2019-05-03T19:26:08.806Z,100031.20
2019-05-03T19:31:11.321Z,100030.20
2019-05-03T19:36:13.851Z,100036.30
2019-05-03T19:41:16.389Z,100035.14
2019-05-03T19:46:18.799Z,100031.34
2019-05-03T19:51:21.276Z,100037.05
2019-05-03T19:56:25.637Z,100034.91
2019-05-03T20:01:26.202Z,100033.54
2019-05-03T20:06:31.608Z,100029.44
2019-05-03T20:11:34.670Z,100025.92
2019-05-03T20:16:36.551Z,100025.14
2019-05-03T20:21:39.009Z,100028.30
2019-05-03T20:26:41.518Z,100025.20
2019-05-03T20:31:44.717Z,100025.75
2019-05-03T20:36:46.446Z,100030.63
2019-05-03T20:41:48.918Z,100023.22
2019-05-03T20:46:51.385Z,100018.29
2019-05-03T20:51:54.409Z,100004.38
2019-05-03T20:56:56.406Z,100017.48
2019-05-03T21:01:58.862Z,100023.39
2019-05-03T21:07:01.331Z,100021.61
2019-05-03T21:12:04.503Z,100019.25
2019-05-03T21:17:15.247Z,100021.22
2019-05-03T21:22:17.699Z,100017.34
2019-05-03T21:27:22.275Z,100014.78
2019-05-03T21:32:22.638Z,100020.20
2019-05-03T21:37:25.115Z,100017.40
2019-05-03T21:42:27.567Z,100017.89
2019-05-03T21:47:35.658Z,100015.14
2019-05-03T21:52:38.139Z,100019.27
2019-05-03T21:57:40.593Z,100012.42
2019-05-03T22:02:43.064Z,100017.02
2019-05-03T22:07:45.516Z,100012.41
2019-05-03T22:12:47.963Z,99997.12
2019-05-03T22:17:53.373Z,100004.44
2019-05-03T22:22:55.816Z,99997.45
2019-05-03T22:27:58.278Z,99994.34
2019-05-03T22:33:00.735Z,99977.91
2019-05-03T22:38:04.585Z,99974.61
2019-05-03T22:43:05.659Z,99975.78
2019-05-03T22:48:08.112Z,99975.78
2019-05-03T22:53:10.563Z,99966.77
2019-05-03T22:58:13.032Z,99960.11
2019-05-03T23:03:15.510Z,99956.41
2019-05-03T23:08:17.961Z,99957.96
2019-05-03T23:13:20.409Z,99948.56
2019-05-03T23:18:24.686Z,99942.26
2019-05-03T23:23:45.454Z,99942.45
2019-05-03T23:28:46.000Z,99927.53
2019-05-03T23:33:48.465Z,99919.48
2019-05-03T23:38:50.904Z,99913.23
2019-05-03T23:43:53.366Z,99911.00
2019-05-03T23:48:55.834Z,99906.93
2019-05-03T23:53:58.288Z,99900.63
2019-05-03T23:59:00.749Z,99900.02
